메인 페이지
METAR-TAF:

METAR-TAF

공항 :

타슈켄트 국제공항

타슈켄트, 우즈베키스탄

위도: 41-16N, 경도: 069-16E, 고도: 489m

현재 날씨관측

예보는 37분 전, 04:30시(UTC)에 발표되었습니다.
무풍
온도 4°C
습도 75%
기압 1031 hPa
시정: 2900m
박무

METAR: UTTT 150430Z 00000KT 2900 BR NSC 04/00 Q1031 R08R/CLRD70 NOSIG

시각: 10:07 (05:07 UTC)

예보

예보는 6 시간 7분 전, 23:00시(UTC)에 발표되었습니다.
예보 대상 시간: 15일 00시부터 15일 24시까지 (UTC)
10kt
시정: 5000m
박무
일시적
15일 00시부터 15일 04시까지 (UTC)
여러 방향의 바람 2kt
시정: 0400m
고도 200ft 상공
어는 안개

TAF: UTTT 142300Z 1500/1524 10010KT 5000 BR NSC TEMPO 1500/1504 VRB02KT 0400 FZFG VV002

4,000개 이상의 공항 관측 자료 및 예보 (METAR 및 TAF 보고).

지도상에서 검색 가능한 기상관측소가 노란 점과 빨간 점으로 표시되어 있습니다.

기상관측소 명을 보려면 표시 위로 마우스를 이동하세요.

날씨 관측과 예보를 보려면 클릭하세요.

지도 변경 : 확대하려면 엑스 표시가 있는 녹색 버튼, 축소하려면 빼기 표시가 있는 녹색 버튼, 다음 페이지의 지도를 보려면 녹색 화살표를 클릭하세요.


METAR-TAF: